createdAt,value
2024-03-30T00:00:02.357Z,0.00
2024-03-30T00:01:02.065Z,0.00
2024-03-30T00:02:02.064Z,0.00
2024-03-30T00:03:01.984Z,0.00
2024-03-30T00:04:01.961Z,0.00
2024-03-30T00:05:02.188Z,0.00
2024-03-30T00:06:01.883Z,0.00
2024-03-30T00:07:01.848Z,0.00
2024-03-30T00:08:01.818Z,0.00
2024-03-30T00:09:01.793Z,0.00
2024-03-30T00:10:02.025Z,0.00
2024-03-30T00:11:01.723Z,0.00
2024-03-30T00:12:01.731Z,0.00
2024-03-30T00:13:01.649Z,0.00
2024-03-30T00:14:01.905Z,0.00
2024-03-30T00:15:01.586Z,0.00
2024-03-30T00:16:01.550Z,0.00
2024-03-30T00:17:01.520Z,0.00
2024-03-30T00:18:01.511Z,0.00
2024-03-30T00:19:01.727Z,0.00
2024-03-30T00:20:01.422Z,0.00
2024-03-30T00:21:01.384Z,0.00
2024-03-30T00:22:01.351Z,0.00
2024-03-30T00:23:01.319Z,0.00
2024-03-30T00:24:01.592Z,0.00
2024-03-30T00:25:01.260Z,0.00
2024-03-30T00:26:01.222Z,0.00
2024-03-30T00:27:01.188Z,0.00
2024-03-30T00:28:01.150Z,0.00
2024-03-30T00:29:01.403Z,0.00
2024-03-30T00:30:01.095Z,0.00
2024-03-30T00:31:01.070Z,0.00
2024-03-30T00:32:01.025Z,0.00
2024-03-30T00:33:00.990Z,0.00
2024-03-30T00:34:01.242Z,0.00
2024-03-30T00:35:00.920Z,0.00
2024-03-30T00:36:00.888Z,0.00
2024-03-30T00:37:00.850Z,0.00
2024-03-30T00:38:00.839Z,0.00
2024-03-30T00:39:01.079Z,0.00
2024-03-30T00:40:00.770Z,0.00
2024-03-30T00:41:00.722Z,0.00
2024-03-30T00:42:00.696Z,0.00
2024-03-30T00:43:05.534Z,0.00
2024-03-30T00:44:00.885Z,0.00
2024-03-30T00:45:00.585Z,0.00
2024-03-30T00:46:00.597Z,0.00
2024-03-30T00:47:00.565Z,0.00
2024-03-30T00:48:00.546Z,0.00
2024-03-30T00:49:00.845Z,0.00
2024-03-30T00:50:00.421Z,0.00
2024-03-30T00:51:00.384Z,0.00
2024-03-30T00:52:00.352Z,0.00
2024-03-30T00:53:00.321Z,0.00
2024-03-30T00:54:00.570Z,0.00
2024-03-30T00:55:00.253Z,0.00
2024-03-30T00:56:00.215Z,0.00
2024-03-30T00:57:00.198Z,0.00
2024-03-30T00:58:00.173Z,0.00
2024-03-30T00:59:00.395Z,0.00
2024-03-30T01:00:00.125Z,0.00
2024-03-30T01:01:00.054Z,0.00
2024-03-30T01:02:00.037Z,0.00
2024-03-30T01:02:59.985Z,0.00
2024-03-30T01:04:00.229Z,0.00
2024-03-30T01:04:59.913Z,0.00
2024-03-30T01:05:59.885Z,0.00
2024-03-30T01:06:59.863Z,0.00
2024-03-30T01:07:59.832Z,0.00
2024-03-30T01:08:59.830Z,0.00
2024-03-30T01:09:59.747Z,0.00
2024-03-30T01:10:59.712Z,0.00
2024-03-30T01:11:59.679Z,0.00
2024-03-30T01:12:59.687Z,0.00
2024-03-30T01:13:59.624Z,0.00
2024-03-30T01:14:59.862Z,0.00
2024-03-30T01:15:59.552Z,0.00
2024-03-30T01:16:59.526Z,0.00
2024-03-30T01:17:59.490Z,0.00
2024-03-30T01:18:59.446Z,0.00
2024-03-30T01:19:59.706Z,0.00
2024-03-30T01:21:01.732Z,0.00
2024-03-30T01:21:59.346Z,0.00
2024-03-30T01:22:59.313Z,0.00
2024-03-30T01:23:59.287Z,0.00
2024-03-30T01:24:59.516Z,0.00
2024-03-30T01:25:59.208Z,0.00
2024-03-30T01:26:59.174Z,0.00
2024-03-30T01:27:59.156Z,0.00
2024-03-30T01:28:59.106Z,0.00
2024-03-30T01:29:59.415Z,0.00
2024-03-30T01:30:59.037Z,0.00
2024-03-30T01:31:59.007Z,0.00
2024-03-30T01:32:58.967Z,0.00
2024-03-30T01:33:58.936Z,0.00
2024-03-30T01:34:59.234Z,0.00
2024-03-30T01:35:58.870Z,0.00
2024-03-30T01:36:58.834Z,0.00
2024-03-30T01:37:58.799Z,0.00
2024-03-30T01:38:58.763Z,0.00
2024-03-30T01:39:59.015Z,0.00
2024-03-30T01:40:58.702Z,0.00
2024-03-30T01:41:58.666Z,0.00
2024-03-30T01:42:58.629Z,0.00
2024-03-30T01:43:58.672Z,0.00
2024-03-30T01:44:58.834Z,0.00
2024-03-30T01:45:58.526Z,0.00
2024-03-30T01:46:58.501Z,0.00
2024-03-30T01:47:58.462Z,0.00
2024-03-30T01:48:58.435Z,0.00
2024-03-30T01:49:58.669Z,0.00
2024-03-30T01:50:58.375Z,0.00
2024-03-30T01:51:58.328Z,0.00
2024-03-30T01:52:58.287Z,0.00
2024-03-30T01:53:58.252Z,0.00
2024-03-30T01:54:58.500Z,0.00
2024-03-30T01:55:58.198Z,0.00
2024-03-30T01:56:58.151Z,0.00
2024-03-30T01:57:58.118Z,0.00
2024-03-30T01:58:58.090Z,0.00
2024-03-30T01:59:58.076Z,0.00
2024-03-30T02:00:58.014Z,0.00
2024-03-30T02:01:58.002Z,0.00
2024-03-30T02:02:57.954Z,0.00
2024-03-30T02:03:57.916Z,0.00
2024-03-30T02:04:58.150Z,0.00
2024-03-30T02:05:57.843Z,0.00
2024-03-30T02:06:57.808Z,0.00
2024-03-30T02:07:57.777Z,0.00
2024-03-30T02:08:57.737Z,0.00
2024-03-30T02:09:57.991Z,0.00
2024-03-30T02:10:57.699Z,0.00
2024-03-30T02:11:57.642Z,0.00
2024-03-30T02:12:57.605Z,0.00
2024-03-30T02:13:57.848Z,0.00
2024-03-30T02:14:57.548Z,0.00
2024-03-30T02:15:57.506Z,0.00
2024-03-30T02:16:57.471Z,0.00
2024-03-30T02:17:57.591Z,0.00
2024-03-30T02:18:57.671Z,0.00
2024-03-30T02:19:57.417Z,0.00
2024-03-30T02:20:57.350Z,0.00
2024-03-30T02:21:57.341Z,0.00
2024-03-30T02:22:57.263Z,0.00
2024-03-30T02:23:57.238Z,0.00
2024-03-30T02:24:57.474Z,0.00
2024-03-30T02:25:57.164Z,0.00
2024-03-30T02:26:57.135Z,0.00
2024-03-30T02:27:57.092Z,0.00
2024-03-30T02:28:57.084Z,0.00
2024-03-30T02:29:57.294Z,0.00
2024-03-30T02:30:56.996Z,0.00
2024-03-30T02:31:56.956Z,0.00
2024-03-30T02:32:56.940Z,0.00
2024-03-30T02:33:57.163Z,0.00
2024-03-30T02:34:56.856Z,0.00
2024-03-30T02:35:56.838Z,0.00
2024-03-30T02:36:56.799Z,0.00
2024-03-30T02:37:56.751Z,0.00
2024-03-30T02:38:56.993Z,0.00
2024-03-30T02:39:56.717Z,0.00
2024-03-30T02:40:56.647Z,0.00
2024-03-30T02:41:56.614Z,0.00
2024-03-30T02:42:56.579Z,0.00
2024-03-30T02:43:56.828Z,0.00
2024-03-30T02:44:56.540Z,0.00
2024-03-30T02:45:56.506Z,0.00
2024-03-30T02:46:56.442Z,0.00
2024-03-30T02:47:56.440Z,0.00
2024-03-30T02:48:56.646Z,0.00
2024-03-30T02:49:56.340Z,0.00
2024-03-30T02:50:56.323Z,0.00
2024-03-30T02:51:56.275Z,0.00
2024-03-30T02:52:56.238Z,0.00
2024-03-30T02:53:56.486Z,0.00
2024-03-30T02:54:56.173Z,0.00
2024-03-30T02:55:56.138Z,0.00
2024-03-30T02:56:56.109Z,0.00
2024-03-30T02:57:56.063Z,0.00
2024-03-30T02:58:56.308Z,0.00
2024-03-30T02:59:56.056Z,0.00
2024-03-30T03:00:55.957Z,0.00
2024-03-30T03:01:55.932Z,0.00
2024-03-30T03:02:55.916Z,0.00
2024-03-30T03:03:56.130Z,0.00
2024-03-30T03:04:55.824Z,0.00
2024-03-30T03:05:55.833Z,0.00
2024-03-30T03:06:55.753Z,0.00
2024-03-30T03:07:55.722Z,0.00
2024-03-30T03:08:56.003Z,0.00
2024-03-30T03:09:55.650Z,0.00
2024-03-30T03:10:55.617Z,0.00
2024-03-30T03:11:55.617Z,0.00
2024-03-30T03:12:55.549Z,0.00
2024-03-30T03:13:55.788Z,0.00
2024-03-30T03:14:55.493Z,0.00
2024-03-30T03:15:55.448Z,0.00
2024-03-30T03:16:55.450Z,0.00
2024-03-30T03:17:55.410Z,0.00
2024-03-30T03:18:55.610Z,0.00
2024-03-30T03:19:55.307Z,0.00
2024-03-30T03:20:55.416Z,0.00
2024-03-30T03:21:55.237Z,0.00
2024-03-30T03:22:55.209Z,0.00
2024-03-30T03:23:55.497Z,0.00
2024-03-30T03:24:55.133Z,0.00
2024-03-30T03:25:55.101Z,0.00
2024-03-30T03:26:55.106Z,0.00
2024-03-30T03:27:55.030Z,0.00
2024-03-30T03:28:55.279Z,0.00
2024-03-30T03:29:54.986Z,0.00
2024-03-30T03:30:54.928Z,0.00
2024-03-30T03:31:54.892Z,0.00
2024-03-30T03:32:54.907Z,0.00
2024-03-30T03:33:55.113Z,0.00
2024-03-30T03:34:54.791Z,0.00
2024-03-30T03:35:54.776Z,0.00
2024-03-30T03:36:54.721Z,0.00
2024-03-30T03:37:54.686Z,0.00
2024-03-30T03:38:54.959Z,0.00
2024-03-30T03:39:54.618Z,0.00
2024-03-30T03:40:54.593Z,0.00
2024-03-30T03:41:54.586Z,0.00
2024-03-30T03:42:54.796Z,0.00
2024-03-30T03:43:54.480Z,0.00
2024-03-30T03:44:54.487Z,0.00
2024-03-30T03:45:54.432Z,0.00
2024-03-30T03:46:54.374Z,0.00
2024-03-30T03:47:54.413Z,0.00
2024-03-30T03:48:54.892Z,0.00
2024-03-30T03:49:54.293Z,0.00
2024-03-30T03:50:54.325Z,0.00
2024-03-30T03:51:54.220Z,0.00
2024-03-30T03:52:54.449Z,0.00
2024-03-30T03:53:54.176Z,0.00
2024-03-30T03:54:54.142Z,0.00
2024-03-30T03:55:54.084Z,0.00
2024-03-30T03:56:54.050Z,0.00
2024-03-30T03:57:54.308Z,0.00
2024-03-30T03:58:53.962Z,0.00
2024-03-30T03:59:53.937Z,0.00
2024-03-30T04:00:53.895Z,0.00
2024-03-30T04:01:53.863Z,0.00
2024-03-30T04:02:54.115Z,0.00
2024-03-30T04:03:53.793Z,0.00
2024-03-30T04:04:53.763Z,0.00
2024-03-30T04:05:53.731Z,0.00
2024-03-30T04:06:53.686Z,0.00
2024-03-30T04:07:53.933Z,0.00
2024-03-30T04:08:53.672Z,0.00
2024-03-30T04:09:53.587Z,0.00
2024-03-30T04:10:53.551Z,0.00
2024-03-30T04:11:53.536Z,0.00
2024-03-30T04:12:53.755Z,0.00
2024-03-30T04:13:53.448Z,4.00
2024-03-30T04:14:53.423Z,4.00
2024-03-30T04:15:53.376Z,0.00
2024-03-30T04:16:53.834Z,4.00
2024-03-30T04:17:53.606Z,4.00
2024-03-30T04:18:53.272Z,4.00
2024-03-30T04:19:53.247Z,8.00
2024-03-30T04:20:53.213Z,4.00
2024-03-30T04:21:53.170Z,8.00
2024-03-30T04:22:53.408Z,8.00
2024-03-30T04:23:53.103Z,8.00
2024-03-30T04:24:53.073Z,12.00
2024-03-30T04:25:53.061Z,16.00
2024-03-30T04:26:53.026Z,16.00
2024-03-30T04:27:53.235Z,24.00
2024-03-30T04:28:52.927Z,24.00
2024-03-30T04:29:52.892Z,32.00
2024-03-30T04:30:52.860Z,36.00
2024-03-30T04:31:52.824Z,44.00
2024-03-30T04:32:53.072Z,52.00
2024-03-30T04:33:52.753Z,56.00
2024-03-30T04:34:52.725Z,64.00
2024-03-30T04:35:52.720Z,76.00
2024-03-30T04:36:52.699Z,88.00
2024-03-30T04:37:52.894Z,100.00
2024-03-30T04:38:52.642Z,112.00
2024-03-30T04:39:52.607Z,128.00
2024-03-30T04:40:52.578Z,144.00
2024-03-30T04:41:52.506Z,156.00
2024-03-30T04:42:52.747Z,172.00
2024-03-30T04:43:52.415Z,188.00
2024-03-30T04:44:52.398Z,208.00
2024-03-30T04:45:52.347Z,224.00
2024-03-30T04:46:52.310Z,240.00
2024-03-30T04:47:52.646Z,264.00
2024-03-30T04:48:52.239Z,288.00
2024-03-30T04:49:52.204Z,312.00
2024-03-30T04:50:52.184Z,340.00
2024-03-30T04:51:52.139Z,368.00
2024-03-30T04:52:52.377Z,404.00
2024-03-30T04:53:52.086Z,444.00
2024-03-30T04:54:52.034Z,480.00
2024-03-30T04:55:51.998Z,520.00
2024-03-30T04:56:52.248Z,564.00
2024-03-30T04:57:51.927Z,612.00
2024-03-30T04:58:51.895Z,676.00
2024-03-30T04:59:51.866Z,752.00
2024-03-30T05:00:51.834Z,836.00
2024-03-30T05:01:51.791Z,928.00
2024-03-30T05:02:52.035Z,1016.00
2024-03-30T05:03:51.723Z,1100.00
2024-03-30T05:04:51.694Z,1176.00
2024-03-30T05:05:51.655Z,1260.00
2024-03-30T05:06:51.920Z,1356.00
2024-03-30T05:07:51.613Z,1468.00
2024-03-30T05:08:51.554Z,1596.00
2024-03-30T05:09:51.514Z,1736.00
2024-03-30T05:10:51.486Z,1868.00
2024-03-30T05:11:51.726Z,1988.00
2024-03-30T05:12:51.413Z,2092.00
2024-03-30T05:13:51.379Z,2172.00
2024-03-30T05:14:51.344Z,2236.00
2024-03-30T05:15:51.311Z,2284.00
2024-03-30T05:16:51.558Z,2312.00
2024-03-30T05:17:51.241Z,2324.00
2024-03-30T05:18:51.214Z,2328.00
2024-03-30T05:19:51.174Z,2364.00
2024-03-30T05:20:51.140Z,2424.00
2024-03-30T05:21:51.126Z,2488.00
2024-03-30T05:22:51.082Z,2540.00
2024-03-30T05:23:51.036Z,2556.00
2024-03-30T05:24:51.011Z,2528.00
2024-03-30T05:25:50.971Z,2480.00
2024-03-30T05:26:51.214Z,2388.00
2024-03-30T05:27:50.910Z,2264.00
2024-03-30T05:28:50.895Z,2156.00
2024-03-30T05:29:50.835Z,2056.00
2024-03-30T05:30:50.863Z,1956.00
2024-03-30T05:31:51.047Z,1880.00
2024-03-30T05:32:50.740Z,1872.00
2024-03-30T05:33:51.402Z,1912.00
2024-03-30T05:34:50.663Z,1948.00
2024-03-30T05:35:50.634Z,2008.00
2024-03-30T05:36:50.876Z,2056.00
2024-03-30T05:37:50.563Z,2072.00
2024-03-30T05:38:50.539Z,2100.00
2024-03-30T05:39:50.497Z,2144.00
2024-03-30T05:40:50.465Z,2176.00
2024-03-30T05:41:50.719Z,2224.00
2024-03-30T05:42:50.396Z,2324.00
2024-03-30T05:43:50.359Z,2500.00
2024-03-30T05:44:50.331Z,2752.00
2024-03-30T05:45:50.290Z,3012.00
2024-03-30T05:46:50.568Z,3224.00
2024-03-30T05:47:50.231Z,3416.00
2024-03-30T05:48:50.190Z,3644.00
2024-03-30T05:49:50.910Z,3888.00
2024-03-30T05:50:50.432Z,4124.00
2024-03-30T05:51:50.093Z,4376.00
2024-03-30T05:52:50.057Z,4616.00
2024-03-30T05:53:50.022Z,4808.00
2024-03-30T05:54:49.991Z,4852.00
2024-03-30T05:55:50.228Z,4720.00
2024-03-30T05:56:49.923Z,4448.00
2024-03-30T05:57:49.890Z,4156.00
2024-03-30T05:58:49.856Z,3920.00
2024-03-30T05:59:49.829Z,3732.00
2024-03-30T06:00:50.066Z,3600.00
2024-03-30T06:01:49.755Z,3500.00
2024-03-30T06:02:49.734Z,3416.00
2024-03-30T06:03:49.691Z,3340.00
2024-03-30T06:04:49.665Z,3240.00
2024-03-30T06:05:49.917Z,3132.00
2024-03-30T06:06:49.614Z,3024.00
2024-03-30T06:07:49.584Z,2908.00
2024-03-30T06:08:49.533Z,2808.00
2024-03-30T06:09:49.489Z,2744.00
2024-03-30T06:10:49.811Z,2752.00
2024-03-30T06:11:49.439Z,2808.00
2024-03-30T06:12:49.400Z,2916.00
2024-03-30T06:13:49.367Z,3048.00
2024-03-30T06:14:49.323Z,3252.00
2024-03-30T06:15:49.583Z,3628.00
2024-03-30T06:16:49.259Z,4008.00
2024-03-30T06:17:49.232Z,4304.00
2024-03-30T06:18:49.862Z,4568.00
2024-03-30T06:19:49.158Z,4832.00
2024-03-30T06:20:49.408Z,4932.00
2024-03-30T06:21:49.109Z,4856.00
2024-03-30T06:22:49.061Z,4764.00
2024-03-30T06:23:49.101Z,4672.00
2024-03-30T06:24:48.994Z,4600.00
2024-03-30T06:25:49.243Z,4588.00
2024-03-30T06:26:48.931Z,4668.00
2024-03-30T06:27:48.901Z,4796.00
2024-03-30T06:28:48.865Z,4952.00
2024-03-30T06:29:48.827Z,5136.00
2024-03-30T06:30:49.017Z,5296.00
2024-03-30T06:31:48.762Z,5412.00
2024-03-30T06:32:48.732Z,5456.00
2024-03-30T06:33:48.708Z,5456.00
2024-03-30T06:34:48.661Z,5468.00
2024-03-30T06:35:48.629Z,5496.00
2024-03-30T06:36:48.874Z,5516.00
2024-03-30T06:37:48.565Z,5552.00
2024-03-30T06:38:48.532Z,5644.00
2024-03-30T06:39:48.833Z,5832.00
2024-03-30T06:40:48.468Z,6032.00
2024-03-30T06:41:48.432Z,6196.00
2024-03-30T06:42:48.404Z,6280.00
2024-03-30T06:43:51.504Z,6320.00
2024-03-30T06:44:48.616Z,6320.00
2024-03-30T06:45:48.321Z,6316.00
2024-03-30T06:46:48.283Z,6332.00
2024-03-30T06:47:48.238Z,6392.00
2024-03-30T06:48:48.207Z,6444.00
2024-03-30T06:49:48.534Z,6516.00
2024-03-30T06:50:48.375Z,6596.00
2024-03-30T06:51:48.113Z,6652.00
2024-03-30T06:52:48.084Z,6684.00
2024-03-30T06:53:48.325Z,6656.00
2024-03-30T06:54:50.286Z,6648.00
2024-03-30T06:55:47.974Z,6664.00
2024-03-30T06:56:47.945Z,6672.00
2024-03-30T06:57:47.915Z,6720.00
2024-03-30T06:58:48.157Z,6868.00
2024-03-30T06:59:47.848Z,7140.00
2024-03-30T07:00:47.868Z,7420.00
2024-03-30T07:01:47.786Z,7692.00
2024-03-30T07:02:47.752Z,7920.00
2024-03-30T07:03:47.791Z,8136.00
2024-03-30T07:04:47.684Z,8348.00
2024-03-30T07:05:47.652Z,8600.00
2024-03-30T07:06:47.632Z,8812.00
2024-03-30T07:07:47.872Z,9008.00
2024-03-30T07:08:47.558Z,9172.00
2024-03-30T07:09:47.533Z,9332.00
2024-03-30T07:10:47.527Z,9524.00
2024-03-30T07:11:47.483Z,9728.00
2024-03-30T07:12:47.460Z,9960.00
2024-03-30T07:13:47.401Z,10172.00
2024-03-30T07:14:47.394Z,10384.00
2024-03-30T07:15:47.370Z,10564.00
2024-03-30T07:17:13.454Z,10680.00
2024-03-30T07:17:47.278Z,10664.00
2024-03-30T07:18:47.450Z,10600.00
2024-03-30T07:19:47.213Z,10508.00
2024-03-30T07:20:47.195Z,10328.00
2024-03-30T07:21:47.164Z,10088.00
2024-03-30T07:22:47.122Z,9776.00
2024-03-30T07:23:47.088Z,9416.00
2024-03-30T07:24:47.395Z,9064.00
2024-03-30T07:25:47.057Z,8780.00
2024-03-30T07:26:46.999Z,8656.00
2024-03-30T07:27:47.240Z,8772.00
2024-03-30T07:28:47.443Z,9056.00
2024-03-30T07:29:50.289Z,9416.00
2024-03-30T07:30:46.863Z,9728.00
2024-03-30T07:31:46.849Z,9952.00
2024-03-30T07:32:46.840Z,10028.00
2024-03-30T07:33:46.778Z,9956.00
2024-03-30T07:34:46.748Z,9784.00
2024-03-30T07:35:47.380Z,9588.00
2024-03-30T07:36:46.688Z,9404.00
2024-03-30T07:37:46.931Z,9248.00
2024-03-30T07:38:46.627Z,9144.00
2024-03-30T07:39:46.599Z,9104.00
2024-03-30T07:40:46.591Z,9128.00
2024-03-30T07:41:51.390Z,9164.00
2024-03-30T07:42:46.507Z,9168.00
2024-03-30T07:43:46.534Z,9132.00
2024-03-30T07:44:46.444Z,9080.00
2024-03-30T07:45:46.411Z,9016.00
2024-03-30T07:46:46.383Z,8948.00
2024-03-30T07:47:46.633Z,8848.00
2024-03-30T07:48:46.324Z,8792.00
2024-03-30T07:49:46.292Z,8784.00
2024-03-30T07:50:46.296Z,8796.00
2024-03-30T07:51:46.233Z,8816.00
2024-03-30T07:52:46.476Z,8804.00
2024-03-30T07:53:46.171Z,8736.00
2024-03-30T07:54:52.991Z,8744.00
2024-03-30T07:55:46.137Z,8740.00
2024-03-30T07:56:46.085Z,8724.00
2024-03-30T07:57:46.322Z,8672.00
2024-03-30T07:58:46.028Z,8652.00
2024-03-30T07:59:46.011Z,8696.00
2024-03-30T08:00:45.962Z,8692.00
2024-03-30T08:01:45.933Z,8696.00
2024-03-30T08:02:46.172Z,8676.00
2024-03-30T08:03:45.872Z,8672.00
2024-03-30T08:04:45.840Z,8696.00
2024-03-30T08:05:45.811Z,8672.00
2024-03-30T08:06:46.949Z,8676.00
2024-03-30T08:07:45.752Z,8788.00
2024-03-30T08:08:45.718Z,8920.00
2024-03-30T08:09:45.688Z,9024.00
2024-03-30T08:10:45.676Z,9108.00
2024-03-30T08:11:45.632Z,9204.00
2024-03-30T08:12:45.871Z,9156.00
2024-03-30T08:13:45.563Z,9064.00
2024-03-30T08:14:45.546Z,9048.00
2024-03-30T08:15:45.520Z,9260.00
2024-03-30T08:16:45.481Z,9432.00
2024-03-30T08:17:45.756Z,9420.00
2024-03-30T08:18:45.440Z,9376.00
2024-03-30T08:19:45.438Z,9376.00
2024-03-30T08:20:45.352Z,9400.00
2024-03-30T08:21:47.776Z,9404.00
2024-03-30T08:22:45.592Z,9404.00
2024-03-30T08:23:45.263Z,9392.00
2024-03-30T08:24:45.247Z,9368.00
2024-03-30T08:25:45.203Z,9352.00
2024-03-30T08:26:45.262Z,9320.00
2024-03-30T08:27:45.160Z,9304.00
2024-03-30T08:28:45.123Z,9284.00
2024-03-30T08:29:45.094Z,9256.00
2024-03-30T08:30:45.062Z,9232.00
2024-03-30T08:31:45.291Z,9232.00
2024-03-30T08:32:45.004Z,9212.00
2024-03-30T08:33:44.969Z,9216.00
2024-03-30T08:34:44.938Z,9212.00
2024-03-30T08:35:44.917Z,9204.00
2024-03-30T08:36:45.153Z,9216.00
2024-03-30T08:37:44.845Z,9208.00
2024-03-30T08:38:44.843Z,9192.00
2024-03-30T08:39:44.789Z,9184.00
2024-03-30T08:40:44.758Z,9180.00
2024-03-30T08:41:44.998Z,9176.00
2024-03-30T08:42:44.767Z,9168.00
2024-03-30T08:43:44.675Z,9164.00
2024-03-30T08:44:44.686Z,9164.00
2024-03-30T08:45:44.614Z,9172.00
2024-03-30T08:46:44.612Z,9180.00
2024-03-30T08:47:44.553Z,9192.00
2024-03-30T08:48:44.521Z,9192.00
2024-03-30T08:49:44.492Z,9192.00
2024-03-30T08:50:44.461Z,9180.00
2024-03-30T08:51:44.744Z,9160.00
2024-03-30T08:52:44.454Z,9108.00
2024-03-30T08:53:44.394Z,9100.00
2024-03-30T08:54:44.363Z,9068.00
2024-03-30T08:55:44.324Z,9036.00
2024-03-30T08:56:44.318Z,9032.00
2024-03-30T08:57:44.261Z,8980.00
2024-03-30T08:58:44.230Z,8900.00
2024-03-30T08:59:44.199Z,8816.00
2024-03-30T09:00:44.173Z,8744.00
2024-03-30T09:01:44.176Z,8748.00
2024-03-30T09:02:44.147Z,8832.00
2024-03-30T09:03:44.083Z,9140.00
2024-03-30T09:04:44.141Z,9568.00
2024-03-30T09:05:44.443Z,9680.00
2024-03-30T09:06:44.008Z,9664.00
2024-03-30T09:07:43.967Z,9724.00
2024-03-30T09:08:44.000Z,9936.00
2024-03-30T09:09:43.906Z,10084.00
2024-03-30T09:10:44.183Z,10088.00
2024-03-30T09:11:43.846Z,10036.00
2024-03-30T09:12:43.821Z,9960.00
2024-03-30T09:13:43.801Z,9860.00
2024-03-30T09:14:43.763Z,9664.00
2024-03-30T09:15:44.005Z,9424.00
2024-03-30T09:16:43.707Z,9200.00
2024-03-30T09:17:43.683Z,8988.00
2024-03-30T09:18:43.666Z,8828.00
2024-03-30T09:19:43.617Z,8788.00
2024-03-30T09:20:43.647Z,8800.00
2024-03-30T09:21:43.565Z,8880.00
2024-03-30T09:22:43.532Z,9028.00
2024-03-30T09:23:43.502Z,9184.00
2024-03-30T09:24:43.474Z,9348.00
2024-03-30T09:25:43.719Z,9348.00
2024-03-30T09:26:43.420Z,9164.00
2024-03-30T09:27:43.391Z,8896.00
2024-03-30T09:28:44.416Z,8676.00
2024-03-30T09:29:43.342Z,8624.00
2024-03-30T09:30:43.599Z,8720.00
2024-03-30T09:31:43.275Z,8996.00
2024-03-30T09:32:43.251Z,9444.00
2024-03-30T09:33:43.221Z,9892.00
2024-03-30T09:34:49.426Z,10252.00
2024-03-30T09:35:43.176Z,10408.00
2024-03-30T09:36:43.135Z,10468.00
2024-03-30T09:37:43.112Z,10408.00
2024-03-30T09:38:43.083Z,10084.00
2024-03-30T09:39:43.339Z,9696.00
2024-03-30T09:40:43.024Z,9336.00
2024-03-30T09:41:42.992Z,8980.00
2024-03-30T09:42:42.977Z,8736.00
2024-03-30T09:43:42.942Z,8620.00
2024-03-30T09:44:42.978Z,8700.00
2024-03-30T09:45:42.893Z,9060.00
2024-03-30T09:46:42.854Z,9692.00
2024-03-30T09:47:42.865Z,10568.00
2024-03-30T09:48:42.802Z,11396.00
2024-03-30T09:49:42.798Z,12040.00
2024-03-30T09:50:42.739Z,12504.00
2024-03-30T09:51:42.715Z,12712.00
2024-03-30T09:52:42.684Z,12556.00
2024-03-30T09:53:42.657Z,12316.00
2024-03-30T09:54:42.670Z,12164.00
2024-03-30T09:55:42.606Z,12128.00
2024-03-30T09:56:42.585Z,12164.00
2024-03-30T09:57:43.465Z,12228.00
2024-03-30T09:58:42.525Z,12244.00
2024-03-30T09:59:42.768Z,12144.00
2024-03-30T10:00:42.457Z,11852.00
2024-03-30T10:01:42.492Z,11492.00
2024-03-30T10:02:42.411Z,11212.00
2024-03-30T10:03:42.410Z,11056.00
2024-03-30T10:04:42.359Z,11160.00
2024-03-30T10:05:42.323Z,11376.00
2024-03-30T10:06:42.298Z,11560.00
2024-03-30T10:07:42.271Z,11668.00
2024-03-30T10:08:42.523Z,11652.00
2024-03-30T10:09:42.223Z,11528.00
2024-03-30T10:10:42.216Z,11280.00
2024-03-30T10:11:42.182Z,10920.00
2024-03-30T10:12:42.130Z,10496.00
2024-03-30T10:13:42.260Z,10276.00
2024-03-30T10:14:42.116Z,10144.00
2024-03-30T10:15:42.052Z,10080.00
2024-03-30T10:16:42.033Z,10024.00
2024-03-30T10:17:42.006Z,9988.00
2024-03-30T10:18:41.995Z,9940.00
2024-03-30T10:19:41.947Z,9912.00
2024-03-30T10:20:41.916Z,9860.00
2024-03-30T10:21:41.891Z,9796.00
2024-03-30T10:22:41.891Z,9672.00
2024-03-30T10:23:41.849Z,9580.00
2024-03-30T10:24:42.116Z,9544.00
2024-03-30T10:25:41.791Z,9556.00
2024-03-30T10:26:41.759Z,9520.00
2024-03-30T10:27:41.733Z,9456.00
2024-03-30T10:28:41.733Z,9384.00
2024-03-30T10:29:41.679Z,9348.00
2024-03-30T10:30:41.648Z,9324.00
2024-03-30T10:31:41.628Z,9304.00
2024-03-30T10:32:41.601Z,9276.00
2024-03-30T10:33:41.603Z,9252.00
2024-03-30T10:34:41.549Z,9228.00
2024-03-30T10:35:41.538Z,9212.00
2024-03-30T10:36:41.493Z,9200.00
2024-03-30T10:37:41.466Z,9176.00
2024-03-30T10:38:41.464Z,9140.00
2024-03-30T10:39:41.492Z,9116.00
2024-03-30T10:40:41.388Z,9092.00
2024-03-30T10:41:41.359Z,9064.00
2024-03-30T10:42:41.338Z,9040.00
2024-03-30T10:43:41.334Z,9036.00
2024-03-30T10:44:41.280Z,9012.00
2024-03-30T10:45:41.256Z,9004.00
2024-03-30T10:46:41.229Z,9008.00
2024-03-30T10:47:41.248Z,9004.00
2024-03-30T10:48:41.460Z,9012.00
2024-03-30T10:49:41.216Z,9016.00
2024-03-30T10:50:41.122Z,9008.00
2024-03-30T10:51:41.225Z,9004.00
2024-03-30T10:52:41.088Z,9000.00
2024-03-30T10:53:41.070Z,8996.00
2024-03-30T10:54:41.017Z,8976.00
2024-03-30T10:55:41.012Z,8920.00
2024-03-30T10:56:40.990Z,8884.00
2024-03-30T10:57:40.939Z,8816.00
2024-03-30T10:58:40.940Z,8748.00
2024-03-30T10:59:40.896Z,8756.00
2024-03-30T11:00:40.860Z,8872.00
2024-03-30T11:01:40.839Z,9120.00
2024-03-30T11:02:40.833Z,9408.00
2024-03-30T11:03:40.789Z,9644.00
2024-03-30T11:04:40.781Z,9864.00
2024-03-30T11:05:40.755Z,9972.00
2024-03-30T11:06:40.702Z,9952.00
2024-03-30T11:07:40.958Z,9868.00
2024-03-30T11:08:40.650Z,9748.00
2024-03-30T11:09:40.648Z,9644.00
2024-03-30T11:10:40.602Z,9520.00
2024-03-30T11:11:40.582Z,9528.00
2024-03-30T11:12:40.831Z,9424.00
2024-03-30T11:13:40.587Z,9408.00
2024-03-30T11:14:40.498Z,9356.00
2024-03-30T11:15:40.478Z,9296.00
2024-03-30T11:16:40.452Z,9328.00
2024-03-30T11:17:40.692Z,9352.00
2024-03-30T11:18:40.397Z,9304.00
2024-03-30T11:19:40.375Z,9360.00
2024-03-30T11:20:40.342Z,9436.00
2024-03-30T11:21:40.316Z,9428.00
2024-03-30T11:22:40.568Z,9376.00
2024-03-30T11:23:40.267Z,9344.00
2024-03-30T11:24:40.238Z,9372.00
2024-03-30T11:25:40.230Z,9456.00
2024-03-30T11:26:40.190Z,9540.00
2024-03-30T11:27:40.201Z,9644.00
2024-03-30T11:28:40.136Z,9624.00
2024-03-30T11:29:40.112Z,9560.00
2024-03-30T11:30:49.508Z,9504.00
2024-03-30T11:31:40.064Z,9468.00
2024-03-30T11:32:40.315Z,9496.00
2024-03-30T11:33:40.023Z,9576.00
2024-03-30T11:34:40.012Z,9652.00
2024-03-30T11:35:39.971Z,9708.00
2024-03-30T11:36:39.936Z,9752.00
2024-03-30T11:37:39.935Z,9708.00
2024-03-30T11:38:41.661Z,9624.00
2024-03-30T11:39:39.862Z,9500.00
2024-03-30T11:40:39.864Z,9384.00
2024-03-30T11:41:39.810Z,9280.00
2024-03-30T11:42:40.067Z,9196.00
2024-03-30T11:43:39.765Z,9128.00
2024-03-30T11:44:39.735Z,9092.00
2024-03-30T11:45:39.716Z,9080.00
2024-03-30T11:46:39.686Z,9060.00
2024-03-30T11:47:39.940Z,9004.00
2024-03-30T11:48:39.639Z,8940.00
2024-03-30T11:49:39.627Z,8884.00
2024-03-30T11:50:39.588Z,8844.00
2024-03-30T11:51:39.578Z,8804.00
2024-03-30T11:52:39.808Z,8760.00
2024-03-30T11:53:39.526Z,8720.00
2024-03-30T11:54:39.497Z,8676.00
2024-03-30T11:55:39.462Z,8632.00
2024-03-30T11:56:39.436Z,8592.00
2024-03-30T11:57:39.958Z,8552.00
2024-03-30T11:58:39.400Z,8512.00
2024-03-30T11:59:39.366Z,8476.00
2024-03-30T12:00:39.335Z,8444.00
2024-03-30T12:01:39.597Z,8412.00
2024-03-30T12:02:39.286Z,8392.00
2024-03-30T12:03:39.302Z,8364.00
2024-03-30T12:04:39.257Z,8348.00
2024-03-30T12:05:39.212Z,8340.00
2024-03-30T12:06:39.478Z,8332.00
2024-03-30T12:07:39.173Z,8328.00
2024-03-30T12:08:39.139Z,8312.00
2024-03-30T12:09:39.115Z,8292.00
2024-03-30T12:10:39.106Z,8276.00
2024-03-30T12:11:39.377Z,8256.00
2024-03-30T12:12:39.074Z,8244.00
2024-03-30T12:13:39.017Z,8236.00
2024-03-30T12:14:39.548Z,8224.00
2024-03-30T12:15:38.984Z,8212.00
2024-03-30T12:16:39.236Z,8204.00
2024-03-30T12:17:38.986Z,8200.00
2024-03-30T12:18:38.911Z,8200.00
2024-03-30T12:19:38.926Z,8196.00
2024-03-30T12:20:39.120Z,8184.00
2024-03-30T12:21:38.826Z,8152.00
2024-03-30T12:22:38.796Z,8132.00
2024-03-30T12:23:38.772Z,8124.00
2024-03-30T12:24:38.768Z,8140.00
2024-03-30T12:25:39.028Z,8156.00
2024-03-30T12:26:38.715Z,8168.00
2024-03-30T12:27:38.676Z,8180.00
2024-03-30T12:28:38.682Z,8192.00